Mission Ridge, South Dakota
Current Conditions -  °F | °C
As of 7:53 AM on Monday 22 Dec 2014 (Local Time) from KPIR Reporting Station
Overcast Overcast  
Wind Chill: 28°   Ceiling: 2200
Heat Index: 37°   Visibility: 10mi
Dew Point: 34°   Wind: 15mph
Humidity: 89%   Direction: 300°WNW
Pressure: 29.45"   Gusts: NA
Location:  44.67°N, 100.77°W
Report Text: KPIR 221453Z AUTO 30013KT 10SM OVC022 03/01 A2945 RMK AO2 RAB16E33 SLP988 P0000 60000 T00280011 51010
Loading
Personal Weather Stations






























Interactive Weather Map New forecast layout! Learn more

10-Day Weather Forecast

Advertisements
Track Severe Weather on mobile